sensor_id;sensor_type;location;lat;lon;timestamp;pressure;altitude;pressure_sealevel;temperature;humidity
62864;BME280;48954;59.950;11.014;2022-08-21T00:18:11;99313.27;;;13.68;65.13
62864;BME280;48954;59.950;11.014;2022-08-21T00:40:02;99305.02;;;13.49;65.53
62864;BME280;48954;59.950;11.014;2022-08-21T00:43:20;99310.93;;;13.49;65.49
62864;BME280;48954;59.950;11.014;2022-08-21T00:46:17;99310.91;;;13.43;65.50
62864;BME280;48954;59.950;11.014;2022-08-21T00:49:58;99314.52;;;13.38;65.48
62864;BME280;48954;59.950;11.014;2022-08-21T00:53:02;99314.05;;;13.36;65.79
62864;BME280;48954;59.950;11.014;2022-08-21T00:56:25;99314.27;;;13.33;65.80
62864;BME280;48954;59.950;11.014;2022-08-21T00:59:09;99312.92;;;13.31;65.82
62864;BME280;48954;59.950;11.014;2022-08-21T01:02:11;99312.52;;;13.29;65.99
62864;BME280;48954;59.950;11.014;2022-08-21T01:05:12;99312.03;;;13.28;66.00
62864;BME280;48954;59.950;11.014;2022-08-21T01:08:32;99313.90;;;13.22;66.14
62864;BME280;48954;59.950;11.014;2022-08-21T01:11:16;99320.06;;;13.21;66.30
62864;BME280;48954;59.950;11.014;2022-08-21T01:13:57;99319.89;;;13.19;66.40
62864;BME280;48954;59.950;11.014;2022-08-21T01:16:40;99317.74;;;13.18;66.54
62864;BME280;48954;59.950;11.014;2022-08-21T01:19:47;99310.36;;;13.09;66.81
62864;BME280;48954;59.950;11.014;2022-08-21T01:22:43;99315.11;;;13.12;67.00
62864;BME280;48954;59.950;11.014;2022-08-21T01:25:43;99322.85;;;13.15;67.09
62864;BME280;48954;59.950;11.014;2022-08-21T01:28:36;99321.80;;;13.13;67.22
62864;BME280;48954;59.950;11.014;2022-08-21T01:31:24;99316.90;;;13.13;67.33
62864;BME280;48954;59.950;11.014;2022-08-21T01:34:19;99313.73;;;13.12;67.54
62864;BME280;48954;59.950;11.014;2022-08-21T01:37:35;99318.63;;;13.09;67.63
62864;BME280;48954;59.950;11.014;2022-08-21T01:40:19;99318.52;;;13.05;67.72
62864;BME280;48954;59.950;11.014;2022-08-21T01:43:21;99316.06;;;13.03;67.95
62864;BME280;48954;59.950;11.014;2022-08-21T01:46:25;99319.61;;;13.02;68.06
62864;BME280;48954;59.950;11.014;2022-08-21T01:49:46;99312.80;;;13.01;68.40
62864;BME280;48954;59.950;11.014;2022-08-21T01:52:53;99309.11;;;13.01;68.51
62864;BME280;48954;59.950;11.014;2022-08-21T01:55:37;99306.52;;;13.04;68.87
62864;BME280;48954;59.950;11.014;2022-08-21T01:58:59;99304.23;;;13.05;69.12
62864;BME280;48954;59.950;11.014;2022-08-21T02:02:01;99302.45;;;13.08;69.15
62864;BME280;48954;59.950;11.014;2022-08-21T02:04:59;99302.06;;;13.11;69.27
62864;BME280;48954;59.950;11.014;2022-08-21T02:08:13;99290.80;;;13.09;69.18
62864;BME280;48954;59.950;11.014;2022-08-21T02:10:44;99299.70;;;13.20;69.20
62864;BME280;48954;59.950;11.014;2022-08-21T02:13:25;99294.58;;;13.23;69.14
62864;BME280;48954;59.950;11.014;2022-08-21T02:16:06;99294.98;;;13.26;69.24
62864;BME280;48954;59.950;11.014;2022-08-21T02:19:02;99291.04;;;13.28;69.20
62864;BME280;48954;59.950;11.014;2022-08-21T02:22:12;99291.92;;;13.31;69.30
62864;BME280;48954;59.950;11.014;2022-08-21T02:25:34;99294.77;;;13.32;69.29
62864;BME280;48954;59.950;11.014;2022-08-21T02:28:36;99293.91;;;13.33;69.55
62864;BME280;48954;59.950;11.014;2022-08-21T02:31:25;99293.14;;;13.35;69.65
62864;BME280;48954;59.950;11.014;2022-08-21T02:34:28;99290.54;;;13.35;69.70
62864;BME280;48954;59.950;11.014;2022-08-21T02:37:33;99291.33;;;13.37;69.95
62864;BME280;48954;59.950;11.014;2022-08-21T02:40:56;99292.27;;;13.39;70.17
62864;BME280;48954;59.950;11.014;2022-08-21T02:44:00;99292.89;;;13.39;70.21
62864;BME280;48954;59.950;11.014;2022-08-21T03:00:10;99281.02;;;13.26;71.11
62864;BME280;48954;59.950;11.014;2022-08-21T03:03:32;99289.26;;;13.33;71.38
62864;BME280;48954;59.950;11.014;2022-08-21T03:19:55;99280.38;;;13.24;72.20
62864;BME280;48954;59.950;11.014;2022-08-21T03:33:49;99274.55;;;13.27;72.53
62864;BME280;48954;59.950;11.014;2022-08-21T03:42:10;99275.75;;;13.29;72.89
62864;BME280;48954;59.950;11.014;2022-08-21T03:50:15;99271.38;;;13.24;73.15
62864;BME280;48954;59.950;11.014;2022-08-21T03:53:18;99282.31;;;13.32;73.29
62864;BME280;48954;59.950;11.014;2022-08-21T04:51:11;99285.84;;;13.53;74.74
62864;BME280;48954;59.950;11.014;2022-08-21T05:34:45;99268.65;;;14.35;75.87
62864;BME280;48954;59.950;11.014;2022-08-21T05:38:19;99269.92;;;14.42;76.15
62864;BME280;48954;59.950;11.014;2022-08-21T07:00:54;99248.10;;;16.26;74.43
62864;BME280;48954;59.950;11.014;2022-08-21T07:03:57;99248.22;;;16.34;74.31
62864;BME280;48954;59.950;11.014;2022-08-21T08:36:53;99205.50;;;17.91;68.50
62864;BME280;48954;59.950;11.014;2022-08-21T08:45:27;99204.15;;;17.91;67.96
62864;BME280;48954;59.950;11.014;2022-08-21T11:20:22;99135.84;;;18.15;61.94
62864;BME280;48954;59.950;11.014;2022-08-21T11:23:29;99126.15;;;18.23;62.60
62864;BME280;48954;59.950;11.014;2022-08-21T11:26:58;99128.23;;;18.43;63.06
62864;BME280;48954;59.950;11.014;2022-08-21T11:29:58;99116.09;;;18.59;62.20
62864;BME280;48954;59.950;11.014;2022-08-21T11:33:05;99118.89;;;18.71;61.78
62864;BME280;48954;59.950;11.014;2022-08-21T11:39:12;99128.35;;;18.74;61.57
62864;BME280;48954;59.950;11.014;2022-08-21T14:59:13;99061.08;;;17.08;69.38
62864;BME280;48954;59.950;11.014;2022-08-21T15:01:41;99071.34;;;16.78;69.44
62864;BME280;48954;59.950;11.014;2022-08-21T15:04:55;99077.55;;;16.56;69.82
62864;BME280;48954;59.950;11.014;2022-08-21T15:08:05;99080.55;;;16.22;70.57
62864;BME280;48954;59.950;11.014;2022-08-21T15:11:11;99081.06;;;15.90;70.86
62864;BME280;48954;59.950;11.014;2022-08-21T15:19:22;99072.60;;;16.25;71.55
62864;BME280;48954;59.950;11.014;2022-08-21T15:22:25;99080.17;;;16.63;71.21
62864;BME280;48954;59.950;11.014;2022-08-21T15:27:49;99077.31;;;16.76;70.48
62864;BME280;48954;59.950;11.014;2022-08-21T15:31:18;99078.19;;;16.82;70.10
62864;BME280;48954;59.950;11.014;2022-08-21T17:38:30;99101.98;;;17.23;59.29
62864;BME280;48954;59.950;11.014;2022-08-21T18:13:57;99144.39;;;15.80;61.31
62864;BME280;48954;59.950;11.014;2022-08-21T19:50:07;99219.83;;;13.02;69.43
62864;BME280;48954;59.950;11.014;2022-08-21T19:55:23;99206.66;;;12.81;70.23
62864;BME280;48954;59.950;11.014;2022-08-21T20:24:02;99226.41;;;12.03;72.20
62864;BME280;48954;59.950;11.014;2022-08-21T20:26:51;99229.13;;;11.99;72.40
62864;BME280;48954;59.950;11.014;2022-08-21T20:29:35;99238.94;;;11.94;72.43
62864;BME280;48954;59.950;11.014;2022-08-21T20:32:20;99244.71;;;11.88;72.63
62864;BME280;48954;59.950;11.014;2022-08-21T20:35:03;99242.32;;;11.76;72.71
62864;BME280;48954;59.950;11.014;2022-08-21T20:37:49;99254.48;;;11.78;72.79
62864;BME280;48954;59.950;11.014;2022-08-21T20:40:26;99258.02;;;11.74;72.98
62864;BME280;48954;59.950;11.014;2022-08-21T20:42:59;99255.98;;;11.68;73.01
62864;BME280;48954;59.950;11.014;2022-08-21T20:45:33;99261.86;;;11.64;73.06
62864;BME280;48954;59.950;11.014;2022-08-21T21:14:11;99289.13;;;11.08;74.34
62864;BME280;48954;59.950;11.014;2022-08-21T21:17:02;99283.09;;;11.03;74.49
62864;BME280;48954;59.950;11.014;2022-08-21T21:19:54;99284.94;;;11.00;74.72
62864;BME280;48954;59.950;11.014;2022-08-21T21:22:31;99288.82;;;10.97;74.85
62864;BME280;48954;59.950;11.014;2022-08-21T21:25:33;99288.79;;;10.94;75.01
62864;BME280;48954;59.950;11.014;2022-08-21T21:28:42;99290.88;;;10.91;75.18
62864;BME280;48954;59.950;11.014;2022-08-21T21:31:13;99290.52;;;10.87;75.39
62864;BME280;48954;59.950;11.014;2022-08-21T21:33:43;99294.88;;;10.85;75.39
62864;BME280;48954;59.950;11.014;2022-08-21T21:42:49;99297.74;;;10.76;75.91
62864;BME280;48954;59.950;11.014;2022-08-21T21:45:39;99287.57;;;10.67;76.08
62864;BME280;48954;59.950;11.014;2022-08-21T21:51:52;99306.92;;;10.70;76.34
62864;BME280;48954;59.950;11.014;2022-08-21T21:58:22;99315.16;;;10.69;76.53
62864;BME280;48954;59.950;11.014;2022-08-21T22:01:42;99315.33;;;10.64;76.59
62864;BME280;48954;59.950;11.014;2022-08-21T22:09:56;99318.31;;;10.55;77.15
62864;BME280;48954;59.950;11.014;2022-08-21T22:15:28;99320.64;;;10.53;77.46
62864;BME280;48954;59.950;11.014;2022-08-21T22:18:04;99316.86;;;10.53;77.56
62864;BME280;48954;59.950;11.014;2022-08-21T22:23:34;99330.53;;;10.51;77.59
62864;BME280;48954;59.950;11.014;2022-08-21T22:26:09;99336.48;;;10.49;77.71
62864;BME280;48954;59.950;11.014;2022-08-21T22:28:39;99340.25;;;10.44;77.77
62864;BME280;48954;59.950;11.014;2022-08-21T22:31:21;99348.30;;;10.43;77.78
62864;BME280;48954;59.950;11.014;2022-08-21T22:36:55;99354.29;;;10.38;77.93
62864;BME280;48954;59.950;11.014;2022-08-21T22:39:33;99359.20;;;10.36;77.94
62864;BME280;48954;59.950;11.014;2022-08-21T22:42:29;99361.10;;;10.33;77.89
62864;BME280;48954;59.950;11.014;2022-08-21T22:45:02;99367.53;;;10.29;77.94
62864;BME280;48954;59.950;11.014;2022-08-21T22:47:42;99370.52;;;10.24;78.00
62864;BME280;48954;59.950;11.014;2022-08-21T22:50:19;99375.33;;;10.20;78.20
62864;BME280;48954;59.950;11.014;2022-08-21T22:52:53;99377.30;;;10.18;78.24
62864;BME280;48954;59.950;11.014;2022-08-21T22:55:43;99377.73;;;10.13;78.22
62864;BME280;48954;59.950;11.014;2022-08-21T22:58:32;99383.23;;;10.07;78.31
62864;BME280;48954;59.950;11.014;2022-08-21T23:01:46;99388.98;;;10.04;78.35
62864;BME280;48954;59.950;11.014;2022-08-21T23:03:52;99388.52;;;10.01;78.51
62864;BME280;48954;59.950;11.014;2022-08-21T23:09:00;99392.41;;;9.94;78.73
62864;BME280;48954;59.950;11.014;2022-08-21T23:11:40;99396.48;;;9.91;78.77
62864;BME280;48954;59.950;11.014;2022-08-21T23:14:22;99393.41;;;9.85;78.90
62864;BME280;48954;59.950;11.014;2022-08-21T23:17:41;99392.48;;;9.77;79.04
62864;BME280;48954;59.950;11.014;2022-08-21T23:20:19;99400.25;;;9.78;79.11
62864;BME280;48954;59.950;11.014;2022-08-21T23:23:21;99401.72;;;9.78;79.12
62864;BME280;48954;59.950;11.014;2022-08-21T23:25:57;99409.84;;;9.76;79.23
62864;BME280;48954;59.950;11.014;2022-08-21T23:42:58;99418.14;;;9.51;79.41
62864;BME280;48954;59.950;11.014;2022-08-21T23:48:34;99424.91;;;9.41;79.62
62864;BME280;48954;59.950;11.014;2022-08-21T23:51:11;99431.45;;;9.36;79.67
62864;BME280;48954;59.950;11.014;2022-08-21T23:56:48;99441.92;;;9.27;79.79
